createdAt,value
2022-09-23T00:00:49.522Z,95417.34
2022-09-23T00:03:16.934Z,95411.47
2022-09-23T00:05:44.088Z,95412.94
2022-09-23T00:08:12.284Z,95404.16
2022-09-23T00:10:40.059Z,95411.81
2022-09-23T00:13:07.095Z,95414.44
2022-09-23T00:15:38.847Z,95415.13
2022-09-23T00:18:05.703Z,95420.59
2022-09-23T00:20:34.186Z,95412.75
2022-09-23T00:23:01.495Z,95412.00
2022-09-23T00:25:29.770Z,95413.63
2022-09-23T00:27:56.902Z,95418.97
2022-09-23T00:30:23.724Z,95423.28
2022-09-23T00:32:50.474Z,95410.34
2022-09-23T00:35:17.247Z,95421.66
2022-09-23T00:37:43.783Z,95422.03
2022-09-23T00:40:12.678Z,95420.19
2022-09-23T00:42:47.411Z,95422.75
2022-09-23T00:45:14.155Z,95414.31
2022-09-23T00:47:54.814Z,95412.88
2022-09-23T00:50:26.793Z,95416.84
2022-09-23T00:52:56.855Z,95419.41
2022-09-23T00:55:30.298Z,95415.50
2022-09-23T00:58:01.443Z,95414.97
2022-09-23T01:00:28.049Z,95413.38
2022-09-23T01:02:55.065Z,95411.50
2022-09-23T01:05:21.879Z,95411.78
2022-09-23T01:07:50.262Z,95402.25
2022-09-23T01:10:18.569Z,95411.41
2022-09-23T01:13:08.411Z,95407.59
2022-09-23T01:15:39.179Z,95409.06
2022-09-23T01:18:12.767Z,95407.06
2022-09-23T01:20:51.115Z,95413.34
2022-09-23T01:23:20.706Z,95405.91
2022-09-23T01:26:00.928Z,95408.66
2022-09-23T01:28:54.280Z,95404.41
2022-09-23T01:31:49.010Z,95408.13
2022-09-23T01:34:26.357Z,95400.53
2022-09-23T01:37:04.176Z,95400.84
2022-09-23T01:39:39.499Z,95399.25
2022-09-23T01:42:17.397Z,95389.06
2022-09-23T01:44:51.305Z,95396.97
2022-09-23T01:47:25.007Z,95392.47
2022-09-23T01:49:53.498Z,95405.84
2022-09-23T01:52:54.774Z,95406.34
2022-09-23T01:55:29.373Z,95398.00
2022-09-23T01:58:04.912Z,95401.59
2022-09-23T02:00:37.367Z,95396.16
2022-09-23T02:03:21.206Z,95395.59
2022-09-23T02:06:13.339Z,95396.38
2022-09-23T02:09:00.404Z,95390.31
2022-09-23T02:11:27.498Z,95395.53
2022-09-23T02:14:03.761Z,95390.19
2022-09-23T02:16:39.432Z,95391.19
2022-09-23T02:19:13.731Z,95398.22
2022-09-23T02:21:44.439Z,95396.31
2022-09-23T02:24:15.630Z,95405.72
2022-09-23T02:26:54.242Z,95401.72
2022-09-23T02:29:41.441Z,95400.56
2022-09-23T02:32:16.797Z,95396.31
2022-09-23T02:35:15.699Z,95401.81
2022-09-23T02:37:47.630Z,95402.78
2022-09-23T02:40:27.836Z,95402.78
2022-09-23T02:43:13.074Z,95403.75
2022-09-23T02:45:39.803Z,95396.06
2022-09-23T02:48:35.169Z,95400.69
2022-09-23T02:51:03.683Z,95402.78
2022-09-23T02:53:34.828Z,95401.25
2022-09-23T02:56:02.552Z,95405.78
2022-09-23T02:58:30.036Z,95393.94
2022-09-23T03:01:11.108Z,95391.53
2022-09-23T03:04:06.776Z,95398.91
2022-09-23T03:07:06.268Z,95399.69
2022-09-23T03:09:40.242Z,95395.94
2022-09-23T03:12:22.568Z,95400.84
2022-09-23T03:15:02.391Z,95403.72
2022-09-23T03:17:39.082Z,95401.09
2022-09-23T03:20:15.438Z,95396.28
2022-09-23T03:22:54.661Z,95390.50
2022-09-23T03:25:25.511Z,95387.69
2022-09-23T03:27:57.648Z,95398.50
2022-09-23T03:30:26.499Z,95387.09
2022-09-23T03:32:55.981Z,95397.88
2022-09-23T03:35:29.566Z,95397.16
2022-09-23T03:38:17.493Z,95397.38
2022-09-23T03:40:47.818Z,95399.16
2022-09-23T03:43:14.550Z,95396.53
2022-09-23T03:45:42.691Z,95397.88
2022-09-23T03:48:09.540Z,95394.00
2022-09-23T03:50:36.395Z,95391.75
2022-09-23T03:53:03.010Z,95393.94
2022-09-23T03:55:29.536Z,95388.16
2022-09-23T03:57:56.865Z,95389.56
2022-09-23T04:00:23.602Z,95391.47
2022-09-23T04:02:50.163Z,95398.22
2022-09-23T04:05:17.966Z,95400.03
2022-09-23T04:07:44.966Z,95396.56
2022-09-23T04:10:11.819Z,95402.47
2022-09-23T04:12:38.521Z,95404.28
2022-09-23T04:15:05.704Z,95399.75
2022-09-23T04:17:32.256Z,95389.22
2022-09-23T04:19:58.795Z,95383.81
2022-09-23T04:22:25.345Z,95382.31
2022-09-23T04:24:52.142Z,95392.03
2022-09-23T04:27:18.732Z,95385.28
2022-09-23T04:29:45.289Z,95383.88
2022-09-23T04:32:11.930Z,95387.28
2022-09-23T04:34:38.557Z,95389.84
2022-09-23T04:37:05.204Z,95394.34
2022-09-23T04:39:31.964Z,95393.66
2022-09-23T04:41:59.684Z,95396.84
2022-09-23T04:44:28.137Z,95399.06
2022-09-23T04:46:54.866Z,95408.53
2022-09-23T04:49:21.691Z,95411.72
2022-09-23T04:51:48.345Z,95410.13
2022-09-23T04:54:15.166Z,95409.59
2022-09-23T04:56:42.232Z,95418.38
2022-09-23T04:59:08.995Z,95412.94
2022-09-23T05:01:36.606Z,95411.00
2022-09-23T05:04:07.297Z,95416.94
2022-09-23T05:06:35.586Z,95408.69
2022-09-23T05:09:04.681Z,95416.03
2022-09-23T05:11:31.725Z,95412.56
2022-09-23T05:13:58.731Z,95410.63
2022-09-23T05:16:26.196Z,95411.31
2022-09-23T05:18:53.426Z,95413.91
2022-09-23T05:21:22.967Z,95416.94
2022-09-23T05:23:55.447Z,95414.03
2022-09-23T05:26:25.359Z,95410.84
2022-09-23T05:28:53.004Z,95412.09
2022-09-23T05:31:21.900Z,95410.56
2022-09-23T05:33:54.757Z,95420.53
2022-09-23T05:36:23.139Z,95416.22
2022-09-23T05:38:50.883Z,95424.00
2022-09-23T05:41:19.346Z,95417.56
2022-09-23T05:43:45.928Z,95417.16
2022-09-23T05:46:18.500Z,95429.44
2022-09-23T05:48:48.079Z,95422.47
2022-09-23T05:51:34.398Z,95423.78
2022-09-23T05:54:04.036Z,95418.31
2022-09-23T05:56:32.390Z,95422.44
2022-09-23T05:59:01.701Z,95427.03
2022-09-23T06:01:33.875Z,95423.38
2022-09-23T06:04:02.494Z,95416.75
2022-09-23T06:06:39.365Z,95416.72
2022-09-23T06:09:08.300Z,95413.41
2022-09-23T06:11:36.227Z,95410.88
2022-09-23T06:14:03.941Z,95413.25
2022-09-23T06:16:33.486Z,95414.06
2022-09-23T06:19:05.821Z,95414.09
2022-09-23T06:21:35.278Z,95427.84
2022-09-23T06:24:02.974Z,95422.75
2022-09-23T06:26:33.880Z,95423.59
2022-09-23T06:29:02.797Z,95418.41
2022-09-23T06:31:30.739Z,95418.47
2022-09-23T06:34:08.375Z,95416.28
2022-09-23T06:36:43.226Z,95421.69
2022-09-23T06:39:11.544Z,95421.72
2022-09-23T06:41:38.407Z,95423.31
2022-09-23T06:44:05.048Z,95416.66
2022-09-23T06:46:31.915Z,95417.84
2022-09-23T06:48:59.303Z,95416.34
2022-09-23T06:51:25.903Z,95415.63
2022-09-23T06:53:52.959Z,95425.91
2022-09-23T06:56:22.050Z,95422.91
2022-09-23T06:58:48.771Z,95417.66
2022-09-23T07:01:16.832Z,95423.03
2022-09-23T07:03:44.869Z,95426.91
2022-09-23T07:06:11.834Z,95427.63
2022-09-23T07:08:38.616Z,95431.41
2022-09-23T07:11:07.052Z,95429.19
2022-09-23T07:13:34.366Z,95433.75
2022-09-23T07:16:02.255Z,95440.53
2022-09-23T07:18:36.902Z,95432.25
2022-09-23T07:21:07.032Z,95434.56
2022-09-23T07:23:34.152Z,95436.44
2022-09-23T07:26:01.145Z,95433.78
2022-09-23T07:28:29.232Z,95434.56
2022-09-23T07:31:00.288Z,95436.81
2022-09-23T07:33:33.036Z,95434.16
2022-09-23T07:36:04.884Z,95437.88
2022-09-23T07:38:31.489Z,95438.63
2022-09-23T07:41:06.933Z,95435.94
2022-09-23T07:43:33.716Z,95435.16
2022-09-23T07:46:16.478Z,95443.75
2022-09-23T07:48:44.594Z,95433.47
2022-09-23T07:51:35.959Z,95434.13
2022-09-23T07:54:05.423Z,95440.75
2022-09-23T07:56:31.974Z,95434.66
2022-09-23T07:59:01.831Z,95430.81
2022-09-23T08:01:31.705Z,95438.28
2022-09-23T08:04:00.551Z,95432.94
2022-09-23T08:06:27.083Z,95433.59
2022-09-23T08:08:53.826Z,95430.47
2022-09-23T08:11:20.720Z,95429.41
2022-09-23T08:13:47.823Z,95431.97
2022-09-23T08:16:14.436Z,95424.31
2022-09-23T08:18:45.012Z,95424.91
2022-09-23T08:21:11.765Z,95416.56
2022-09-23T08:23:38.681Z,95423.03
2022-09-23T08:26:11.788Z,95435.00
2022-09-23T08:28:41.162Z,95432.75
2022-09-23T08:31:08.474Z,95434.34
2022-09-23T08:33:35.064Z,95426.00
2022-09-23T08:36:03.165Z,95437.25
2022-09-23T08:38:30.052Z,95434.19
2022-09-23T08:41:09.364Z,95436.63
2022-09-23T08:43:37.491Z,95434.88
2022-09-23T08:46:10.801Z,95434.03
2022-09-23T08:48:43.893Z,95432.34
2022-09-23T08:51:26.239Z,95428.25
2022-09-23T08:53:53.022Z,95435.97
2022-09-23T08:56:23.049Z,95424.69
2022-09-23T08:59:05.677Z,95422.88
2022-09-23T09:01:49.582Z,95430.91
2022-09-23T09:04:16.127Z,95427.88
2022-09-23T09:07:24.621Z,95419.63
2022-09-23T09:09:55.154Z,95421.84
2022-09-23T09:12:27.670Z,95422.03
2022-09-23T09:14:59.903Z,95418.59
2022-09-23T09:17:26.456Z,95415.50
2022-09-23T09:20:26.296Z,95417.09
2022-09-23T09:22:59.905Z,95410.91
2022-09-23T09:25:34.288Z,95408.50
2022-09-23T09:28:01.475Z,95404.78
2022-09-23T09:30:28.367Z,95407.47
2022-09-23T09:33:03.004Z,95398.25
2022-09-23T09:35:42.176Z,95394.44
2022-09-23T09:38:08.881Z,95400.78
2022-09-23T09:40:47.518Z,95394.56
2022-09-23T09:43:26.220Z,95395.09
2022-09-23T09:46:26.675Z,95392.59
2022-09-23T09:49:02.284Z,95390.75
2022-09-23T09:51:29.531Z,95379.94
2022-09-23T09:54:24.726Z,95386.91
2022-09-23T09:56:51.624Z,95377.72
2022-09-23T09:59:25.564Z,95379.91
2022-09-23T10:02:13.718Z,95377.06
2022-09-23T10:04:41.292Z,95374.84
2022-09-23T10:07:15.993Z,95374.03
2022-09-23T10:09:51.000Z,95372.81
2022-09-23T10:12:20.478Z,95359.16
2022-09-23T10:14:52.042Z,95366.25
2022-09-23T10:17:24.472Z,95366.59
2022-09-23T10:20:00.431Z,95373.34
2022-09-23T10:22:34.124Z,95368.72
2022-09-23T10:25:07.481Z,95372.25
2022-09-23T10:27:36.383Z,95377.44
2022-09-23T10:30:23.407Z,95370.16
2022-09-23T10:32:51.883Z,95358.69
2022-09-23T10:35:24.563Z,95360.19
2022-09-23T10:38:10.673Z,95358.22
2022-09-23T10:40:58.992Z,95360.75
2022-09-23T10:43:47.460Z,95356.78
2022-09-23T10:46:53.067Z,95350.19
2022-09-23T10:50:10.351Z,95355.47
2022-09-23T10:53:00.570Z,95341.41
2022-09-23T10:55:51.922Z,95345.94
2022-09-23T10:58:18.415Z,95335.41
2022-09-23T11:00:55.255Z,95337.53
2022-09-23T11:03:56.756Z,95332.66
2022-09-23T11:06:48.071Z,95335.59
2022-09-23T11:09:26.751Z,95323.53
2022-09-23T11:12:27.349Z,95330.84
2022-09-23T11:15:12.318Z,95323.00
2022-09-23T11:17:55.863Z,95314.84
2022-09-23T11:20:36.711Z,95311.81
2022-09-23T11:23:28.122Z,95304.63
2022-09-23T11:26:09.638Z,95304.75
2022-09-23T11:28:58.071Z,95303.25
2022-09-23T11:31:57.364Z,95300.13
2022-09-23T11:35:13.630Z,95289.50
2022-09-23T11:37:52.450Z,95292.41
2022-09-23T11:40:35.083Z,95291.13
2022-09-23T11:43:11.430Z,95283.97
2022-09-23T11:45:55.024Z,95288.31
2022-09-23T11:48:39.912Z,95281.16
2022-09-23T11:51:16.941Z,95269.75
2022-09-23T11:54:04.951Z,95271.84
2022-09-23T11:56:45.468Z,95277.84
2022-09-23T11:59:39.115Z,95269.41
2022-09-23T12:02:26.886Z,95266.50
2022-09-23T12:05:09.334Z,95257.50
2022-09-23T12:07:59.866Z,95248.31
2022-09-23T12:10:42.297Z,95249.03
2022-09-23T12:13:20.694Z,95244.41
2022-09-23T12:16:12.105Z,95242.31
2022-09-23T12:18:51.209Z,95248.66
2022-09-23T12:24:32.300Z,95238.81
2022-09-23T12:27:02.949Z,95239.81
2022-09-23T12:29:32.348Z,95233.59
2022-09-23T12:31:59.789Z,95237.09
2022-09-23T12:34:35.959Z,95240.56
2022-09-23T12:37:04.153Z,95233.03
2022-09-23T12:39:37.256Z,95231.50
2022-09-23T12:42:06.840Z,95225.75
2022-09-23T12:44:44.280Z,95218.19
2022-09-23T12:47:26.021Z,95217.16
2022-09-23T12:49:53.224Z,95218.25
2022-09-23T12:52:19.717Z,95197.78
2022-09-23T12:54:49.018Z,95202.66
2022-09-23T12:57:35.335Z,95199.28
2022-09-23T13:00:14.253Z,95188.34
2022-09-23T13:03:13.989Z,95185.72
2022-09-23T13:06:06.469Z,95186.66
2022-09-23T13:08:37.035Z,95177.41
2022-09-23T13:11:08.556Z,95176.06
2022-09-23T13:13:44.454Z,95175.34
2022-09-23T13:16:41.933Z,95167.44
2022-09-23T13:19:27.185Z,95170.06
2022-09-23T13:21:53.650Z,95170.44
2022-09-23T13:24:23.285Z,95171.50
2022-09-23T13:26:53.504Z,95161.81
2022-09-23T13:29:37.891Z,95161.81
2022-09-23T13:32:06.112Z,95167.19
2022-09-23T13:34:34.701Z,95164.59
2022-09-23T13:37:23.126Z,95158.56
2022-09-23T13:39:50.585Z,95158.25
2022-09-23T13:42:29.151Z,95157.13
2022-09-23T13:45:00.434Z,95151.34
2022-09-23T13:47:30.219Z,95156.25
2022-09-23T13:49:57.552Z,95148.88
2022-09-23T13:52:31.941Z,95145.66
2022-09-23T13:54:58.655Z,95150.44
2022-09-23T13:57:26.747Z,95143.13
2022-09-23T13:59:53.668Z,95142.66
2022-09-23T14:02:20.285Z,95131.03
2022-09-23T14:07:15.581Z,95131.75
2022-09-23T14:11:01.986Z,95122.41
2022-09-23T14:13:36.820Z,95140.06
2022-09-23T14:16:04.250Z,95128.81
2022-09-23T14:18:38.823Z,95126.06
2022-09-23T14:21:38.753Z,95125.13
2022-09-23T14:24:22.219Z,95129.28
2022-09-23T14:27:15.590Z,95120.91
2022-09-23T14:29:47.881Z,95126.28
2022-09-23T14:32:19.221Z,95128.34
2022-09-23T14:34:53.833Z,95118.22
2022-09-23T14:37:57.367Z,95116.44
2022-09-23T14:40:34.356Z,95109.31
2022-09-23T14:43:11.393Z,95095.88
2022-09-23T14:45:40.775Z,95096.97
2022-09-23T14:48:16.634Z,95100.59
2022-09-23T14:50:50.553Z,95090.75
2022-09-23T14:53:18.003Z,95096.69
2022-09-23T14:55:52.761Z,95087.38
2022-09-23T14:58:23.103Z,95090.69
2022-09-23T15:00:54.194Z,95089.22
2022-09-23T15:03:21.567Z,95084.56
2022-09-23T15:05:50.994Z,95081.69
2022-09-23T15:08:23.087Z,95090.44
2022-09-23T15:10:50.361Z,95081.47
2022-09-23T15:13:21.145Z,95081.69
2022-09-23T15:15:48.197Z,95076.97
2022-09-23T15:18:19.286Z,95070.91
2022-09-23T15:20:54.229Z,95073.25
2022-09-23T15:23:39.830Z,95067.22
2022-09-23T15:26:18.028Z,95067.69
2022-09-23T15:28:45.662Z,95062.91
2022-09-23T15:31:15.134Z,95063.25
2022-09-23T15:33:44.267Z,95065.03
2022-09-23T15:36:23.396Z,95063.88
2022-09-23T15:38:50.166Z,95058.41
2022-09-23T15:41:17.818Z,95062.75
2022-09-23T15:43:44.629Z,95057.94
2022-09-23T15:46:19.275Z,95058.84
2022-09-23T15:48:58.336Z,95061.09
2022-09-23T15:51:26.636Z,95067.63
2022-09-23T15:53:54.941Z,95069.81
2022-09-23T15:56:22.816Z,95071.81
2022-09-23T15:58:49.502Z,95074.28
2022-09-23T16:01:24.337Z,95065.84
2022-09-23T16:03:50.925Z,95065.63
2022-09-23T16:06:17.573Z,95068.00
2022-09-23T16:08:44.110Z,95065.09
2022-09-23T16:11:19.562Z,95057.91
2022-09-23T16:13:46.781Z,95061.41
2022-09-23T16:16:13.577Z,95064.97
2022-09-23T16:18:42.354Z,95059.22
2022-09-23T16:21:13.159Z,95060.03
2022-09-23T16:23:43.724Z,95062.34
2022-09-23T16:26:22.574Z,95062.41
2022-09-23T16:28:50.822Z,95062.09
2022-09-23T16:31:18.257Z,95066.88
2022-09-23T16:33:46.095Z,95058.06
2022-09-23T16:36:27.329Z,95060.97
2022-09-23T16:38:55.643Z,95063.44
2022-09-23T16:41:28.916Z,95062.63
2022-09-23T16:43:56.348Z,95060.38
2022-09-23T16:46:27.142Z,95054.50
2022-09-23T16:48:53.926Z,95054.31
2022-09-23T16:51:26.639Z,95056.25
2022-09-23T16:53:55.452Z,95051.28
2022-09-23T16:56:28.431Z,95057.66
2022-09-23T16:58:56.554Z,95052.97
2022-09-23T17:01:47.016Z,95061.03
2022-09-23T17:04:15.863Z,95063.97
2022-09-23T17:06:50.272Z,95070.69
2022-09-23T17:09:18.892Z,95069.44
2022-09-23T17:11:49.080Z,95065.13
2022-09-23T17:14:16.493Z,95072.19
2022-09-23T17:16:43.817Z,95072.06
2022-09-23T17:19:12.023Z,95069.16
2022-09-23T17:21:39.208Z,95059.19
2022-09-23T17:24:06.256Z,95055.03
2022-09-23T17:26:33.037Z,95062.69
2022-09-23T17:29:00.981Z,95071.84
2022-09-23T17:31:28.064Z,95070.50
2022-09-23T17:33:54.881Z,95059.03
2022-09-23T17:36:21.655Z,95071.34
2022-09-23T17:38:49.634Z,95070.41
2022-09-23T17:41:18.080Z,95076.75
2022-09-23T17:43:45.599Z,95074.88
2022-09-23T17:46:14.866Z,95087.28
2022-09-23T17:48:43.373Z,95072.53
2022-09-23T17:51:14.170Z,95076.88
2022-09-23T17:53:43.253Z,95083.00
2022-09-23T17:56:19.059Z,95082.13
2022-09-23T17:58:47.646Z,95069.25
2022-09-23T18:01:17.620Z,95074.50
2022-09-23T18:03:44.413Z,95076.00
2022-09-23T18:06:18.022Z,95078.91
2022-09-23T18:08:46.445Z,95073.34
2022-09-23T18:11:20.497Z,95067.25
2022-09-23T18:13:51.739Z,95072.34
2022-09-23T18:16:19.356Z,95069.41
2022-09-23T18:18:57.223Z,95074.94
2022-09-23T18:21:26.361Z,95072.44
2022-09-23T18:23:52.947Z,95069.88
2022-09-23T18:26:24.798Z,95078.91
2022-09-23T18:29:00.836Z,95080.81
2022-09-23T18:31:29.150Z,95075.03
2022-09-23T18:33:55.977Z,95071.34
2022-09-23T18:36:24.090Z,95064.63
2022-09-23T18:38:51.359Z,95066.06
2022-09-23T18:41:18.745Z,95070.50
2022-09-23T18:43:48.567Z,95063.06
2022-09-23T18:46:22.747Z,95072.59
2022-09-23T18:49:08.937Z,95070.81
2022-09-23T18:51:38.584Z,95071.47
2022-09-23T18:54:07.707Z,95073.06
2022-09-23T18:56:44.600Z,95066.47
2022-09-23T18:59:17.812Z,95055.88
2022-09-23T19:01:45.972Z,95055.72
2022-09-23T19:04:14.217Z,95058.47
2022-09-23T19:06:41.055Z,95053.81
2022-09-23T19:09:07.912Z,95061.75
2022-09-23T19:11:36.371Z,95067.19
2022-09-23T19:14:06.062Z,95061.06
2022-09-23T19:16:34.882Z,95063.13
2022-09-23T19:19:02.166Z,95066.13
2022-09-23T19:21:29.954Z,95068.53
2022-09-23T19:24:05.692Z,95078.41
2022-09-23T19:26:35.192Z,95083.03
2022-09-23T19:29:04.343Z,95073.91
2022-09-23T19:31:34.401Z,95071.69
2022-09-23T19:34:10.823Z,95080.44
2022-09-23T19:36:40.898Z,95076.16
2022-09-23T19:39:19.514Z,95071.25
2022-09-23T19:41:46.613Z,95064.47
2022-09-23T19:44:14.158Z,95059.56
2022-09-23T19:46:44.605Z,95067.28
2022-09-23T19:49:11.742Z,95068.91
2022-09-23T19:51:39.519Z,95078.72
2022-09-23T19:54:08.041Z,95066.41
2022-09-23T19:56:35.369Z,95065.22
2022-09-23T19:59:05.947Z,95070.84
2022-09-23T20:01:33.578Z,95068.44
2022-09-23T20:04:00.688Z,95071.91
2022-09-23T20:06:32.587Z,95076.44
2022-09-23T20:09:00.924Z,95077.56
2022-09-23T20:11:28.970Z,95075.72
2022-09-23T20:14:02.242Z,95077.31
2022-09-23T20:16:32.486Z,95078.47
2022-09-23T20:19:00.358Z,95077.38
2022-09-23T20:21:29.494Z,95083.88
2022-09-23T20:23:57.171Z,95080.59
2022-09-23T20:26:42.675Z,95081.38
2022-09-23T20:29:10.775Z,95067.91
2022-09-23T20:31:41.792Z,95075.00
2022-09-23T20:34:10.805Z,95079.59
2022-09-23T20:36:40.933Z,95080.06
2022-09-23T20:39:08.036Z,95078.22
2022-09-23T20:41:37.374Z,95089.31
2022-09-23T20:44:07.085Z,95090.69
2022-09-23T20:46:34.548Z,95081.84
2022-09-23T20:49:02.069Z,95072.53
2022-09-23T20:51:28.787Z,95075.66
2022-09-23T20:53:55.906Z,95084.66
2022-09-23T20:56:23.366Z,95070.38
2022-09-23T20:58:52.234Z,95068.66
2022-09-23T21:01:19.449Z,95075.97
2022-09-23T21:03:48.628Z,95071.63
2022-09-23T21:06:19.053Z,95075.16
2022-09-23T21:08:46.287Z,95073.19
2022-09-23T21:11:15.617Z,95077.03
2022-09-23T21:13:47.262Z,95074.88
2022-09-23T21:16:16.252Z,95069.75
2022-09-23T21:18:44.216Z,95072.91
2022-09-23T21:21:12.343Z,95069.53
2022-09-23T21:23:40.467Z,95069.63
2022-09-23T21:26:09.179Z,95072.28
2022-09-23T21:28:38.072Z,95074.53
2022-09-23T21:31:07.782Z,95061.28
2022-09-23T21:33:36.687Z,95058.69
2022-09-23T21:36:05.193Z,95063.81
2022-09-23T21:38:38.994Z,95071.13
2022-09-23T21:41:07.816Z,95067.28
2022-09-23T21:43:37.377Z,95067.72
2022-09-23T21:46:09.726Z,95061.19
2022-09-23T21:48:38.019Z,95061.16
2022-09-23T21:51:08.283Z,95062.16
2022-09-23T21:53:39.215Z,95064.03
2022-09-23T21:56:09.969Z,95060.41
2022-09-23T21:58:37.837Z,95063.03
2022-09-23T22:01:12.362Z,95061.13
2022-09-23T22:03:39.669Z,95064.34
2022-09-23T22:06:09.509Z,95074.13
2022-09-23T22:08:39.320Z,95072.63
2022-09-23T22:11:29.934Z,95081.41
2022-09-23T22:13:57.469Z,95074.50
2022-09-23T22:16:25.002Z,95071.00
2022-09-23T22:18:55.876Z,95066.44
2022-09-23T22:21:23.367Z,95058.47
2022-09-23T22:23:58.105Z,95059.91
2022-09-23T22:26:25.124Z,95064.78
2022-09-23T22:29:10.304Z,95060.06
2022-09-23T22:31:55.467Z,95060.06
2022-09-23T22:34:48.439Z,95055.91
2022-09-23T22:37:20.714Z,95057.31
2022-09-23T22:39:47.423Z,95056.19
2022-09-23T22:42:14.499Z,95050.06
2022-09-23T22:44:41.116Z,95049.25
2022-09-23T22:47:09.255Z,95055.84
2022-09-23T22:49:36.053Z,95053.56
2022-09-23T22:52:07.087Z,95058.06
2022-09-23T22:54:34.362Z,95058.75
2022-09-23T22:57:03.950Z,95058.69
2022-09-23T22:59:30.622Z,95057.16
2022-09-23T23:01:59.155Z,95049.56
2022-09-23T23:04:25.728Z,95060.38
2022-09-23T23:06:52.476Z,95056.09
2022-09-23T23:09:19.235Z,95048.50
2022-09-23T23:11:47.267Z,95043.63
2022-09-23T23:14:16.606Z,95040.09
2022-09-23T23:16:45.201Z,95040.84
2022-09-23T23:19:14.078Z,95039.28
2022-09-23T23:21:43.509Z,95036.28
2022-09-23T23:24:21.931Z,95021.91
2022-09-23T23:26:49.154Z,95029.44
2022-09-23T23:29:18.613Z,95030.41
2022-09-23T23:31:45.500Z,95028.25
2022-09-23T23:34:14.306Z,95018.94
2022-09-23T23:36:41.482Z,95030.06
2022-09-23T23:39:08.626Z,95025.34
2022-09-23T23:41:35.685Z,95026.84
2022-09-23T23:44:02.947Z,95025.94
2022-09-23T23:46:31.468Z,95022.28
2022-09-23T23:48:59.680Z,95014.50
2022-09-23T23:51:27.321Z,95018.06
2022-09-23T23:53:54.805Z,95001.72
2022-09-23T23:56:24.378Z,95009.38
2022-09-23T23:58:59.687Z,95008.75
